Time;durP1;ratioP1;P1;durP2;ratioP2;P2;SDS_P1;SDS_P2;PMS_P1;PMS_P2;Temp;Humidity;BMP_temperature;BMP_pressure;BME280_temperature;BME280_humidity;BME280_pressure;Samples;Min_cycle;Max_cycle;Signal;HPM_P1;HPM_P2
2023/03/03 00:01:35;;;;;;;;;;;;;;;9.31;65.24;99081.50;5015113;28;20289;-81
2023/03/03 00:04:00;;;;;;;;;;;;;;;9.32;65.16;99077.13;5014838;28;19917;-81
2023/03/03 00:06:25;;;;;;;;;;;;;;;9.30;65.20;99074.63;5014693;28;19940;-81
2023/03/03 00:08:51;;;;;;;;;;;;;;;9.29;65.12;99067.75;5014950;28;19924;-81
2023/03/03 00:11:16;;;;;;;;;;;;;;;9.29;65.31;99065.13;4998044;28;19924;-81
2023/03/03 00:13:45;;;;;;;;;;;;;;;9.30;65.18;99061.59;5015000;28;19917;-81
2023/03/03 00:16:15;;;;;;;;;;;;;;;9.30;65.28;99056.41;4998097;28;20411;-82
2023/03/03 00:18:44;;;;;;;;;;;;;;;9.29;65.17;99046.06;5014688;28;19921;-82
2023/03/03 00:21:24;;;;;;;;;;;;;;;9.28;64.81;99041.78;5029256;28;20008;-81
2023/03/03 00:23:50;;;;;;;;;;;;;;;9.28;65.26;99037.41;5034042;28;19917;-81
2023/03/03 00:26:17;;;;;;;;;;;;;;;9.28;65.27;99047.00;5035217;28;20460;-81
2023/03/03 00:28:46;;;;;;;;;;;;;;;9.27;65.17;99040.16;5034115;28;19924;-82
2023/03/03 00:31:14;;;;;;;;;;;;;;;9.26;64.71;99034.06;5035302;28;19925;-82
2023/03/03 00:33:42;;;;;;;;;;;;;;;9.26;65.19;99034.06;5033696;28;19921;-81
2023/03/03 00:36:13;;;;;;;;;;;;;;;9.27;65.30;99029.72;5033722;28;19959;-82
2023/03/03 00:38:39;;;;;;;;;;;;;;;9.26;65.29;99018.44;5039751;28;19925;-84
2023/03/03 00:41:10;;;;;;;;;;;;;;;9.26;65.24;99021.06;5031874;28;19946;-83
2023/03/03 00:43:35;;;;;;;;;;;;;;;9.27;65.12;99020.13;5048894;28;19917;-81
2023/03/03 00:46:01;;;;;;;;;;;;;;;9.26;65.16;99012.41;5021175;28;19916;-82
2023/03/03 00:48:26;;;;;;;;;;;;;;;9.25;65.13;99008.97;5036707;28;19921;-82
2023/03/03 00:50:52;;;;;;;;;;;;;;;9.27;65.16;99008.88;5036944;28;19917;-81
2023/03/03 00:53:18;;;;;;;;;;;;;;;9.26;65.13;99007.22;5037347;28;19917;-82
2023/03/03 00:55:44;;;;;;;;;;;;;;;9.26;65.13;98996.78;5054849;28;20007;-82
2023/03/03 00:58:09;;;;;;;;;;;;;;;9.25;65.05;98995.97;5036848;28;19956;-80
2023/03/03 01:00:35;;;;;;;;;;;;;;;9.26;65.10;98988.97;5036854;28;20011;-80
2023/03/03 01:03:01;;;;;;;;;;;;;;;9.26;65.04;98987.19;5036760;28;19917;-81
2023/03/03 01:05:26;;;;;;;;;;;;;;;9.26;65.11;98992.41;5036092;28;19920;-81
2023/03/03 01:07:52;;;;;;;;;;;;;;;9.26;65.05;98989.78;5037083;28;19923;-81
2023/03/03 01:10:17;;;;;;;;;;;;;;;9.26;65.06;98988.97;5036820;28;20012;-81
2023/03/03 01:12:42;;;;;;;;;;;;;;;9.24;65.05;98984.69;5054341;28;19920;-82
2023/03/03 01:15:08;;;;;;;;;;;;;;;9.25;65.15;98982.94;5054797;28;19927;-80
2023/03/03 01:17:34;;;;;;;;;;;;;;;9.23;65.07;98977.81;5036461;28;19917;-81
2023/03/03 01:19:59;;;;;;;;;;;;;;;9.23;65.02;98985.63;5036369;28;19923;-81
2023/03/03 01:22:25;;;;;;;;;;;;;;;9.24;65.05;98981.25;5054010;28;19917;-81
2023/03/03 01:24:50;;;;;;;;;;;;;;;9.23;65.04;98980.44;5036425;28;19917;-81
2023/03/03 01:27:15;;;;;;;;;;;;;;;9.23;65.06;98977.81;5036569;28;19916;-81
2023/03/03 01:29:41;;;;;;;;;;;;;;;9.23;65.09;98976.97;5054115;28;19939;-82
2023/03/03 01:32:06;;;;;;;;;;;;;;;9.23;65.16;98979.56;5054160;28;19916;-82
2023/03/03 01:34:31;;;;;;;;;;;;;;;9.23;65.02;98977.81;5036058;28;19970;-81
2023/03/03 01:36:57;;;;;;;;;;;;;;;9.24;64.99;98968.22;5019909;28;19917;-82
2023/03/03 01:39:22;;;;;;;;;;;;;;;9.22;65.10;98973.53;5035919;28;19968;-82
2023/03/03 01:41:47;;;;;;;;;;;;;;;9.23;64.92;98971.75;5054476;28;20011;-82
2023/03/03 01:44:13;;;;;;;;;;;;;;;9.24;65.24;98970.84;5036192;28;19923;-82
2023/03/03 01:46:41;;;;;;;;;;;;;;;9.22;65.11;98973.53;5036068;28;19928;-81
2023/03/03 01:49:10;;;;;;;;;;;;;;;9.24;65.00;98973.44;5053622;28;19917;-81
2023/03/03 01:51:37;;;;;;;;;;;;;;;9.23;64.97;98971.75;5036298;28;19917;-81
2023/03/03 01:54:03;;;;;;;;;;;;;;;9.22;65.03;98976.16;5035586;28;19917;-81
2023/03/03 01:56:29;;;;;;;;;;;;;;;9.23;65.09;98976.97;5019396;28;19921;-83
2023/03/03 01:58:57;;;;;;;;;;;;;;;9.22;65.06;98970.94;5035959;28;19916;-82
2023/03/03 02:01:23;;;;;;;;;;;;;;;9.21;64.97;98981.47;5035279;28;19928;-81
2023/03/03 02:03:49;;;;;;;;;;;;;;;9.20;65.04;98983.25;5018726;28;19921;-82
2023/03/03 02:06:14;;;;;;;;;;;;;;;9.22;64.84;98988.34;5018974;28;19917;-82
2023/03/03 02:08:43;;;;;;;;;;;;;;;9.21;64.96;98979.69;5035328;28;19920;-82
2023/03/03 02:11:09;;;;;;;;;;;;;;;9.22;64.96;98980.53;5035424;28;19978;-81
2023/03/03 02:13:34;;;;;;;;;;;;;;;9.22;64.98;98978.75;5035536;28;19917;-81
2023/03/03 02:16:00;;;;;;;;;;;;;;;9.21;65.04;98984.88;5053556;28;19964;-82
2023/03/03 02:18:25;;;;;;;;;;;;;;;9.22;64.85;98990.94;5035601;28;19924;-81
2023/03/03 02:20:56;;;;;;;;;;;;;;;9.20;65.00;98983.25;5053286;28;19917;-81
2023/03/03 02:23:25;;;;;;;;;;;;;;;9.21;65.16;98984.06;5018964;28;19917;-81
2023/03/03 02:25:56;;;;;;;;;;;;;;;9.21;64.83;98978.84;5035686;28;19947;-82
2023/03/03 02:28:28;;;;;;;;;;;;;;;9.21;64.93;98982.28;5053262;28;19974;-81
2023/03/03 02:30:54;;;;;;;;;;;;;;;9.22;65.04;98983.97;5035476;28;19920;-81
2023/03/03 02:33:19;;;;;;;;;;;;;;;9.21;64.80;98979.69;5036114;28;20447;-81
2023/03/03 02:35:44;;;;;;;;;;;;;;;9.21;64.94;98984.06;5035457;28;20073;-81
2023/03/03 02:38:18;;;;;;;;;;;;;;;9.22;64.80;98983.13;5035545;28;19925;-81
2023/03/03 02:40:46;;;;;;;;;;;;;;;9.21;64.59;98981.47;5035474;28;19943;-81
2023/03/03 02:43:11;;;;;;;;;;;;;;;9.21;64.67;98986.66;5018369;28;19917;-81
2023/03/03 02:45:41;;;;;;;;;;;;;;;9.20;65.04;98988.44;5018874;28;19939;-82
2023/03/03 02:48:06;;;;;;;;;;;;;;;9.19;64.82;98984.16;5018767;28;19917;-81
2023/03/03 02:50:31;;;;;;;;;;;;;;;9.20;64.82;98991.06;5053575;28;20008;-81
2023/03/03 02:52:57;;;;;;;;;;;;;;;9.19;64.80;98981.56;5053541;28;19916;-81
2023/03/03 02:55:22;;;;;;;;;;;;;;;9.20;64.82;98985.00;5034831;28;19916;-81
2023/03/03 02:57:47;;;;;;;;;;;;;;;9.20;64.80;98979.78;5019118;28;19917;-81
2023/03/03 03:00:13;;;;;;;;;;;;;;;9.21;64.69;98984.06;5035612;28;19940;-81
2023/03/03 03:02:38;;;;;;;;;;;;;;;9.19;64.89;98980.75;5034986;28;20404;-81
2023/03/03 03:05:03;;;;;;;;;;;;;;;9.20;64.84;98982.38;5034610;28;19974;-81
2023/03/03 03:07:29;;;;;;;;;;;;;;;9.20;64.71;98982.38;5052594;28;20316;-81
2023/03/03 03:09:55;;;;;;;;;;;;;;;9.19;64.83;98981.56;5034836;28;19916;-81
2023/03/03 03:12:20;;;;;;;;;;;;;;;9.19;64.66;98984.16;5034122;28;20015;-81
2023/03/03 03:14:45;;;;;;;;;;;;;;;9.17;64.71;98978.22;5033971;28;19924;-81
2023/03/03 03:17:11;;;;;;;;;;;;;;;9.17;64.73;98975.63;5034796;28;19917;-81
2023/03/03 03:19:36;;;;;;;;;;;;;;;9.18;64.84;98984.25;5052431;28;20308;-81
2023/03/03 03:22:02;;;;;;;;;;;;;;;9.18;64.52;98979.88;5034911;28;20019;-81
2023/03/03 03:24:27;;;;;;;;;;;;;;;9.17;64.68;98983.44;5034056;28;19917;-81
2023/03/03 03:26:52;;;;;;;;;;;;;;;9.17;64.77;98975.63;5017851;28;20383;-81
2023/03/03 03:29:18;;;;;;;;;;;;;;;9.18;64.49;98979.06;5017842;28;19921;-81
2023/03/03 03:31:43;;;;;;;;;;;;;;;9.16;64.87;98975.72;5017824;28;19917;-81
2023/03/03 03:34:08;;;;;;;;;;;;;;;9.17;64.78;98977.38;5034626;28;19971;-82
2023/03/03 03:36:34;;;;;;;;;;;;;;;9.17;64.52;98970.41;5052583;28;19920;-82
2023/03/03 03:39:01;;;;;;;;;;;;;;;9.18;64.66;98973.84;5031104;28;19925;-82
2023/03/03 03:41:27;;;;;;;;;;;;;;;9.17;64.77;98969.56;5031411;28;19917;-82
2023/03/03 03:43:52;;;;;;;;;;;;;;;9.17;64.69;98972.16;5031235;28;19921;-81
2023/03/03 03:46:17;;;;;;;;;;;;;;;9.17;64.62;98973.03;5031275;28;19921;-82
2023/03/03 03:48:43;;;;;;;;;;;;;;;9.17;64.35;98979.97;5031475;28;19928;-81
2023/03/03 03:51:09;;;;;;;;;;;;;;;9.17;64.47;98972.16;5014712;28;19925;-81
2023/03/03 03:53:34;;;;;;;;;;;;;;;9.17;64.69;98978.22;5031550;28;19924;-81
2023/03/03 03:55:59;;;;;;;;;;;;;;;9.15;64.63;98974.88;5031481;28;19917;-82
2023/03/03 03:58:25;;;;;;;;;;;;;;;9.14;64.41;98970.63;5011934;28;19928;-81
2023/03/03 04:00:50;;;;;;;;;;;;;;;9.16;64.62;98967.91;4994982;28;19926;-81
2023/03/03 04:03:15;;;;;;;;;;;;;;;9.15;64.65;98963.63;5011363;28;20355;-81
2023/03/03 04:05:41;;;;;;;;;;;;;;;9.15;64.65;98969.66;5011129;28;20032;-81
2023/03/03 04:08:06;;;;;;;;;;;;;;;9.13;64.58;98966.34;4994969;28;20368;-80
2023/03/03 04:10:31;;;;;;;;;;;;;;;9.13;64.56;98963.72;5011280;28;20287;-80
2023/03/03 04:12:57;;;;;;;;;;;;;;;9.13;64.57;98960.31;5011267;28;19924;-80
2023/03/03 04:15:22;;;;;;;;;;;;;;;9.14;64.45;98965.41;4994967;28;20356;-80
2023/03/03 04:17:47;;;;;;;;;;;;;;;9.13;64.66;98968.94;5011034;28;19918;-81
2023/03/03 04:20:14;;;;;;;;;;;;;;;9.14;64.56;98967.16;4994763;28;19918;-80
2023/03/03 04:22:39;;;;;;;;;;;;;;;9.12;64.61;98964.66;4994949;28;19922;-81
2023/03/03 04:25:05;;;;;;;;;;;;;;;9.15;64.48;98969.66;5013373;28;20347;-81
2023/03/03 04:27:33;;;;;;;;;;;;;;;9.15;64.49;98969.66;5014560;28;20380;-81
2023/03/03 04:29:59;;;;;;;;;;;;;;;9.14;64.28;98970.63;4997713;28;20308;-81
2023/03/03 04:32:24;;;;;;;;;;;;;;;9.15;64.33;98963.63;5014467;28;19917;-81
2023/03/03 04:34:49;;;;;;;;;;;;;;;9.15;64.46;98971.44;5015627;28;19924;-82
2023/03/03 04:37:15;;;;;;;;;;;;;;;9.15;64.57;98966.25;5016084;28;20344;-82
2023/03/03 04:39:40;;;;;;;;;;;;;;;9.14;64.42;98961.94;4997948;28;19925;-81
2023/03/03 04:42:05;;;;;;;;;;;;;;;9.13;64.37;98963.72;4997845;28;19962;-82
2023/03/03 04:44:30;;;;;;;;;;;;;;;9.13;64.52;98968.94;5014115;28;19917;-82
2023/03/03 04:46:56;;;;;;;;;;;;;;;9.14;64.51;98969.78;5014663;28;19918;-81
2023/03/03 04:49:21;;;;;;;;;;;;;;;9.14;64.59;98969.78;5014089;28;19918;-82
2023/03/03 04:51:46;;;;;;;;;;;;;;;9.14;64.52;98968.03;4997775;28;19960;-82
2023/03/03 04:54:12;;;;;;;;;;;;;;;9.15;64.51;98963.63;5014123;28;20397;-82
2023/03/03 04:56:37;;;;;;;;;;;;;;;9.14;64.43;98962.81;5015228;28;19917;-83
2023/03/03 04:59:02;;;;;;;;;;;;;;;9.15;64.40;98963.63;5013875;28;19975;-83
2023/03/03 05:01:27;;;;;;;;;;;;;;;9.13;64.45;98963.72;5014166;28;19917;-83
2023/03/03 05:03:53;;;;;;;;;;;;;;;9.14;64.37;98968.03;4997405;28;19918;-83
2023/03/03 05:06:18;;;;;;;;;;;;;;;9.13;64.43;98968.13;5015149;28;19922;-82
2023/03/03 05:08:44;;;;;;;;;;;;;;;9.14;64.44;98970.63;5014034;28;20312;-82
2023/03/03 05:11:09;;;;;;;;;;;;;;;9.15;64.25;98974.88;4997431;28;20020;-82
2023/03/03 05:13:35;;;;;;;;;;;;;;;9.17;64.27;98974.78;4997323;28;19924;-81
2023/03/03 05:16:00;;;;;;;;;;;;;;;9.17;64.34;98972.16;5018314;28;19924;-82
2023/03/03 05:18:25;;;;;;;;;;;;;;;9.17;64.32;98973.03;5031642;28;19921;-81
2023/03/03 05:20:51;;;;;;;;;;;;;;;9.18;64.17;98966.84;5031735;28;20325;-81
2023/03/03 05:23:16;;;;;;;;;;;;;;;9.19;64.21;98968.53;5022057;28;19956;-80
2023/03/03 05:25:41;;;;;;;;;;;;;;;9.21;64.21;98973.66;5007748;28;19925;-81
2023/03/03 05:28:07;;;;;;;;;;;;;;;9.20;64.05;98965.00;5025810;28;19913;-81
2023/03/03 05:30:33;;;;;;;;;;;;;;;9.21;64.14;98964.06;5021850;28;19922;-81
2023/03/03 05:32:58;;;;;;;;;;;;;;;9.23;64.11;98963.94;5017234;28;19917;-82
2023/03/03 05:35:24;;;;;;;;;;;;;;;9.23;64.25;98966.56;5032236;28;20403;-82
2023/03/03 05:37:51;;;;;;;;;;;;;;;9.24;64.13;98958.63;5018364;28;19922;-81
2023/03/03 05:40:17;;;;;;;;;;;;;;;9.26;64.08;98968.13;5050579;28;19921;-82
2023/03/03 05:42:42;;;;;;;;;;;;;;;9.27;63.95;98962.00;5053797;28;19917;-83
2023/03/03 05:45:07;;;;;;;;;;;;;;;9.29;63.95;98957.50;5053404;28;19921;-83
2023/03/03 05:47:33;;;;;;;;;;;;;;;9.31;63.93;98953.00;5019432;28;19917;-82
2023/03/03 05:49:59;;;;;;;;;;;;;;;9.34;63.95;98963.22;5034199;28;19928;-82
2023/03/03 05:52:25;;;;;;;;;;;;;;;9.35;63.81;98959.69;5018752;28;19928;-82
2023/03/03 05:54:50;;;;;;;;;;;;;;;9.36;63.82;98962.19;5008620;28;19919;-82
2023/03/03 05:57:15;;;;;;;;;;;;;;;9.38;63.71;98962.91;5024868;28;19917;-83
2023/03/03 05:59:41;;;;;;;;;;;;;;;9.39;63.77;98966.34;5019024;28;19917;-86
2023/03/03 06:02:06;;;;;;;;;;;;;;;9.42;63.68;98973.97;5020221;28;20311;-85
2023/03/03 06:04:33;;;;;;;;;;;;;;;9.43;63.77;98962.63;5036151;28;20318;-81
2023/03/03 06:06:58;;;;;;;;;;;;;;;9.65;70.47;98966.38;5029226;28;19974;-82
2023/03/03 06:09:25;;;;;;;;;;;;;;;9.75;69.39;98967.38;5043990;28;19917;-79
2023/03/03 06:11:52;;;;;;;;;;;;;;;9.78;68.02;98968.00;4999802;28;19917;-77
2023/03/03 06:14:17;;;;;;;;;;;;;;;10.14;73.92;98976.81;5019156;28;19917;-84
2023/03/03 06:16:42;;;;;;;;;;;;;;;10.50;74.88;98964.72;5002116;28;19924;-85
2023/03/03 06:19:08;;;;;;;;;;;;;;;10.58;72.56;98969.38;5001482;28;19917;-78
2023/03/03 06:21:33;;;;;;;;;;;;;;;10.66;71.78;98974.06;5016694;28;19917;-83
2023/03/03 06:23:58;;;;;;;;;;;;;;;10.81;73.15;98975.50;5000616;28;19921;-81
2023/03/03 06:26:24;;;;;;;;;;;;;;;10.86;71.26;98978.66;5015416;28;20006;-80
2023/03/03 06:28:52;;;;;;;;;;;;;;;10.87;69.42;98979.47;4999549;28;20456;-80
2023/03/03 06:31:18;;;;;;;;;;;;;;;10.90;69.62;98978.44;5017716;28;19956;-85
2023/03/03 06:33:43;;;;;;;;;;;;;;;10.90;68.58;98978.44;5017709;28;19924;-80
2023/03/03 06:36:09;;;;;;;;;;;;;;;10.88;68.05;98973.31;5016149;28;19929;-82
2023/03/03 06:38:35;;;;;;;;;;;;;;;10.84;67.66;98971.84;5002500;28;19960;-77
2023/03/03 06:41:03;;;;;;;;;;;;;;;10.79;67.44;98976.59;5017114;28;20380;-79
2023/03/03 06:43:28;;;;;;;;;;;;;;;10.73;67.37;98979.66;5016945;28;19917;-83
2023/03/03 06:45:53;;;;;;;;;;;;;;;10.68;67.09;98974.75;4999312;28;19917;-78
2023/03/03 06:48:19;;;;;;;;;;;;;;;10.63;67.08;98979.50;4999271;28;19921;-77
2023/03/03 06:50:44;;;;;;;;;;;;;;;10.72;70.57;98991.03;5015469;28;19924;-79
2023/03/03 06:53:13;;;;;;;;;;;;;;;10.77;70.17;98988.91;4999064;28;20016;-83
2023/03/03 06:55:38;;;;;;;;;;;;;;;10.78;69.04;98986.19;5000454;28;19929;-78
2023/03/03 06:58:08;;;;;;;;;;;;;;;10.86;71.41;98990.84;5016276;28;20323;-77
2023/03/03 07:00:33;;;;;;;;;;;;;;;11.04;72.99;98978.22;5015778;28;19917;-79
2023/03/03 07:02:59;;;;;;;;;;;;;;;11.04;70.65;98980.84;4998780;28;19943;-78
2023/03/03 07:05:26;;;;;;;;;;;;;;;10.97;69.18;98980.44;5015065;28;19917;-79
2023/03/03 07:07:53;;;;;;;;;;;;;;;11.00;70.11;98989.84;4998609;28;19917;-78
2023/03/03 07:10:28;;;;;;;;;;;;;;;10.94;69.29;98987.69;4998945;28;20011;-78
2023/03/03 07:12:53;;;;;;;;;;;;;;;11.14;73.51;98971.34;5033597;28;19960;-85
2023/03/03 07:15:20;;;;;;;;;;;;;;;11.16;71.81;98981.69;4998867;28;20403;-79
2023/03/03 07:17:47;;;;;;;;;;;;;;;11.15;70.08;98970.41;5030934;28;19917;-80
2023/03/03 07:20:32;;;;;;;;;;;;;;;11.14;69.33;98967.91;5012964;28;19917;-80
2023/03/03 07:22:57;;;;;;;;;;;;;;;11.12;68.78;98960.19;4998132;28;20530;-83
2023/03/03 07:25:26;;;;;;;;;;;;;;;11.14;68.16;98960.91;4997977;28;19917;-80
2023/03/03 07:27:52;;;;;;;;;;;;;;;11.15;67.93;98953.91;5032451;28;19974;-80
2023/03/03 07:30:26;;;;;;;;;;;;;;;11.18;67.61;98958.88;4998376;28;20285;-80
2023/03/03 07:32:52;;;;;;;;;;;;;;;11.20;67.15;98950.00;4998083;28;20380;-82
2023/03/03 07:35:18;;;;;;;;;;;;;;;11.23;67.18;98959.41;5015275;28;19917;-81
2023/03/03 07:37:44;;;;;;;;;;;;;;;11.28;66.83;98948.59;5014825;28;20303;-81
2023/03/03 07:40:28;;;;;;;;;;;;;;;11.31;66.33;98948.38;5014719;28;19932;-81
2023/03/03 07:42:53;;;;;;;;;;;;;;;11.37;66.52;98945.28;5032985;28;19943;-80
2023/03/03 07:45:23;;;;;;;;;;;;;;;11.45;66.01;98949.91;4998511;28;19921;-80
2023/03/03 07:47:49;;;;;;;;;;;;;;;11.57;65.85;98946.34;5015198;28;19924;-79
2023/03/03 07:50:15;;;;;;;;;;;;;;;11.70;65.26;98946.22;5032456;28;20288;-78
2023/03/03 07:52:41;;;;;;;;;;;;;;;11.72;65.41;98942.56;4998694;28;19917;-80
2023/03/03 07:55:25;;;;;;;;;;;;;;;11.76;65.00;98941.38;4998758;28;19944;-80
2023/03/03 07:57:50;;;;;;;;;;;;;;;11.76;65.07;98938.78;5032317;28;20081;-81
2023/03/03 08:00:16;;;;;;;;;;;;;;;11.85;64.64;98937.19;5001056;28;19999;-79
2023/03/03 08:02:46;;;;;;;;;;;;;;;11.91;64.71;98935.91;5018312;28;19921;-80
2023/03/03 08:05:19;;;;;;;;;;;;;;;11.95;64.34;98934.72;5002097;28;20461;-80
2023/03/03 08:07:45;;;;;;;;;;;;;;;12.01;64.16;98938.66;5018781;28;19923;-80
2023/03/03 08:10:36;;;;;;;;;;;;;;;12.03;64.06;98948.03;5018508;28;19917;-81
2023/03/03 08:13:07;;;;;;;;;;;;;;;12.05;63.70;98940.91;4939506;29;19918;-80
2023/03/03 08:15:35;;;;;;;;;;;;;;;12.07;63.68;98938.16;4939921;29;19918;-80
2023/03/03 08:18:00;;;;;;;;;;;;;;;12.11;63.54;98940.41;4940033;29;19961;-81
2023/03/03 08:20:31;;;;;;;;;;;;;;;12.13;63.35;98943.75;4923800;29;19958;-81
2023/03/03 08:22:57;;;;;;;;;;;;;;;12.08;63.35;98937.19;4956437;28;19925;-81
2023/03/03 08:25:22;;;;;;;;;;;;;;;12.10;63.29;98932.69;4923905;29;19922;-79
2023/03/03 08:27:47;;;;;;;;;;;;;;;12.09;63.58;98936.25;4939688;29;20371;-80
2023/03/03 08:30:13;;;;;;;;;;;;;;;12.09;63.30;98928.41;4923265;29;19918;-81
2023/03/03 08:32:38;;;;;;;;;;;;;;;12.09;63.07;98933.63;4923790;29;19922;-80
2023/03/03 08:35:04;;;;;;;;;;;;;;;12.09;63.06;98933.63;4955554;28;20393;-80
2023/03/03 08:37:29;;;;;;;;;;;;;;;12.03;62.94;98937.56;4939439;29;19922;-80
2023/03/03 08:39:54;;;;;;;;;;;;;;;12.00;63.05;98932.59;4939020;29;19946;-81
2023/03/03 08:42:19;;;;;;;;;;;;;;;12.00;62.99;98929.97;4923253;29;20345;-81
2023/03/03 08:44:45;;;;;;;;;;;;;;;11.99;62.68;98933.53;4923393;29;19962;-80
2023/03/03 08:47:10;;;;;;;;;;;;;;;11.99;62.91;98932.72;4923028;29;20016;-80
2023/03/03 08:49:35;;;;;;;;;;;;;;;11.99;62.99;98930.91;4955575;28;19942;-81
2023/03/03 08:52:01;;;;;;;;;;;;;;;12.01;62.72;98925.56;5001483;28;20011;-80
2023/03/03 08:54:26;;;;;;;;;;;;;;;12.02;62.83;98925.44;5018421;28;20299;-81
2023/03/03 08:56:51;;;;;;;;;;;;;;;12.03;62.81;98924.47;5001770;28;19924;-81
2023/03/03 08:59:17;;;;;;;;;;;;;;;12.03;62.68;98923.66;5017795;28;20468;-80
2023/03/03 09:01:43;;;;;;;;;;;;;;;12.01;62.66;98923.78;5000928;28;19917;-82
2023/03/03 09:04:09;;;;;;;;;;;;;;;11.97;62.84;98917.13;5017652;28;19981;-81
2023/03/03 09:06:34;;;;;;;;;;;;;;;11.94;62.72;98920.00;5000659;28;19948;-80
2023/03/03 09:09:00;;;;;;;;;;;;;;;11.89;63.06;98916.84;5016845;28;19917;-81
2023/03/03 09:11:26;;;;;;;;;;;;;;;11.87;63.06;98914.38;5000726;28;19971;-81
2023/03/03 09:13:53;;;;;;;;;;;;;;;11.85;63.22;98907.59;5001374;28;19940;-81
2023/03/03 09:16:21;;;;;;;;;;;;;;;11.88;62.88;98910.81;5000528;28;19924;-80
2023/03/03 09:18:46;;;;;;;;;;;;;;;11.92;62.72;98911.41;5000991;28;20008;-81
2023/03/03 09:21:31;;;;;;;;;;;;;;;11.91;62.74;98910.56;5017208;28;19952;-81
2023/03/03 09:23:59;;;;;;;;;;;;;;;11.98;62.60;98915.34;5017611;28;20295;-81
2023/03/03 09:26:29;;;;;;;;;;;;;;;12.03;62.54;98911.38;5000392;28;19917;-79
2023/03/03 09:29:06;;;;;;;;;;;;;;;12.11;62.32;98908.16;5017187;28;19924;-81
2023/03/03 09:31:47;;;;;;;;;;;;;;;12.18;62.36;98901.50;5034823;28;19917;-81
2023/03/03 09:34:15;;;;;;;;;;;;;;;12.28;61.89;98901.59;5017198;28;20380;-81
2023/03/03 09:36:40;;;;;;;;;;;;;;;12.39;61.92;98905.97;5000396;28;20489;-81
2023/03/03 09:39:32;;;;;;;;;;;;;;;12.46;61.64;98901.88;5000013;28;20007;-80
2023/03/03 09:41:57;;;;;;;;;;;;;;;12.56;61.15;98899.34;5030336;28;19967;-81
2023/03/03 09:44:29;;;;;;;;;;;;;;;12.61;61.41;98907.66;5016165;28;19921;-80
2023/03/03 09:46:54;;;;;;;;;;;;;;;12.67;60.71;98907.97;5016384;28;20028;-80
2023/03/03 09:49:26;;;;;;;;;;;;;;;12.73;60.50;98906.66;5016441;28;20360;-81
2023/03/03 09:52:11;;;;;;;;;;;;;;;12.79;60.43;98906.16;5017208;28;19917;-80
2023/03/03 09:54:55;;;;;;;;;;;;;;;12.86;60.27;98901.22;5016644;28;19917;-80
2023/03/03 09:57:28;;;;;;;;;;;;;;;12.95;60.09;98905.72;5016545;28;19924;-80
2023/03/03 10:00:14;;;;;;;;;;;;;;;13.06;60.14;98903.97;5000168;28;19917;-80
2023/03/03 10:02:49;;;;;;;;;;;;;;;13.17;59.59;98898.66;5016382;28;19921;-79
2023/03/03 10:05:36;;;;;;;;;;;;;;;13.30;59.21;98891.41;5033721;28;19924;-80
2023/03/03 10:08:04;;;;;;;;;;;;;;;13.44;58.87;98885.03;4999911;28;19944;-80
2023/03/03 10:11:09;;;;;;;;;;;;;;;13.56;58.87;98878.69;5016765;28;19917;-82
2023/03/03 10:13:34;;;;;;;;;;;;;;;13.66;58.50;98870.03;4938497;29;19918;-81
2023/03/03 10:16:06;;;;;;;;;;;;;;;13.73;58.62;98869.38;4937803;29;19941;-81
2023/03/03 10:18:38;;;;;;;;;;;;;;;13.80;58.52;98863.59;4922626;29;19978;-82
2023/03/03 10:21:08;;;;;;;;;;;;;;;13.84;58.28;98865.81;4922262;28;19925;-84
2023/03/03 10:23:55;;;;;;;;;;;;;;;13.85;58.29;98854.38;4922039;29;20030;-81
2023/03/03 10:26:38;;;;;;;;;;;;;;;13.85;58.22;98859.63;4953728;29;19918;-81
2023/03/03 10:29:15;;;;;;;;;;;;;;;13.84;58.31;98854.50;4937745;29;19918;-80
2023/03/03 10:31:53;;;;;;;;;;;;;;;13.80;58.34;98850.47;4921571;29;20061;-80
2023/03/03 10:34:19;;;;;;;;;;;;;;;13.74;58.76;98844.81;4938011;28;20437;-81
2023/03/03 10:36:52;;;;;;;;;;;;;;;13.68;58.74;98844.53;4937793;29;19919;-81
2023/03/03 10:39:18;;;;;;;;;;;;;;;13.61;59.11;98841.59;4920793;29;19986;-80
2023/03/03 10:41:58;;;;;;;;;;;;;;;13.55;59.04;98835.09;4937441;29;20473;-80
2023/03/03 10:44:34;;;;;;;;;;;;;;;13.51;59.13;98838.13;4979146;28;19917;-81
2023/03/03 10:47:06;;;;;;;;;;;;;;;13.46;59.40;98824.59;5015684;28;19917;-79
2023/03/03 10:49:31;;;;;;;;;;;;;;;13.40;59.54;98828.56;4999269;28;19974;-82
2023/03/03 10:52:16;;;;;;;;;;;;;;;13.35;59.65;98823.72;5035118;28;19917;-88
2023/03/03 10:54:54;;;;;;;;;;;;;;;13.33;59.56;98822.16;5015920;28;19917;-81
2023/03/03 10:57:32;;;;;;;;;;;;;;;13.33;59.32;98816.94;5016286;28;19918;-80
2023/03/03 11:00:16;;;;;;;;;;;;;;;13.34;59.46;98814.16;4999722;28;19917;-81
2023/03/03 11:02:41;;;;;;;;;;;;;;;13.34;59.41;98819.41;5015452;28;19917;-81
2023/03/03 11:05:30;;;;;;;;;;;;;;;13.31;59.37;98817.03;5015467;28;20012;-80
2023/03/03 11:08:03;;;;;;;;;;;;;;;13.26;59.35;98808.75;4936705;29;19918;-80
2023/03/03 11:10:42;;;;;;;;;;;;;;;13.20;59.73;98809.25;4920686;29;20382;-80
2023/03/03 11:13:10;;;;;;;;;;;;;;;13.15;59.56;98809.66;4920967;29;19996;-80
2023/03/03 11:15:48;;;;;;;;;;;;;;;13.11;59.87;98808.28;4952892;29;19918;-79
2023/03/03 11:18:34;;;;;;;;;;;;;;;13.07;59.86;98804.25;4937207;29;20401;-80
2023/03/03 11:21:12;;;;;;;;;;;;;;;13.01;59.68;98815.25;4936556;29;19962;-79
2023/03/03 11:23:43;;;;;;;;;;;;;;;12.97;59.97;98809.44;4920617;29;20013;-80
2023/03/03 11:26:08;;;;;;;;;;;;;;;12.94;60.05;98806.28;4936873;29;19985;-82
2023/03/03 11:28:52;;;;;;;;;;;;;;;12.88;60.08;98809.41;4936436;28;20405;-80
2023/03/03 11:31:21;;;;;;;;;;;;;;;12.82;60.31;98813.38;4936764;29;19925;-81
2023/03/03 11:33:58;;;;;;;;;;;;;;;12.79;60.21;98811.00;4937504;29;20450;-79
2023/03/03 11:36:26;;;;;;;;;;;;;;;12.75;60.23;98809.63;4940459;29;19925;-81
2023/03/03 11:38:58;;;;;;;;;;;;;;;12.72;60.37;98804.63;4924232;28;19999;-81
2023/03/03 11:41:30;;;;;;;;;;;;;;;12.65;60.47;98802.53;4924440;29;20364;-80
2023/03/03 11:44:02;;;;;;;;;;;;;;;12.62;60.42;98804.59;4963276;28;19918;-80
2023/03/03 11:46:36;;;;;;;;;;;;;;;12.55;60.63;98808.66;5002547;28;19917;-79
2023/03/03 11:49:05;;;;;;;;;;;;;;;12.49;60.80;98807.38;5002678;28;20384;-79
2023/03/03 11:51:31;;;;;;;;;;;;;;;12.44;60.77;98805.13;5002306;28;19917;-80
2023/03/03 11:54:00;;;;;;;;;;;;;;;12.37;60.84;98797.94;5036681;28;19917;-80
2023/03/03 11:56:40;;;;;;;;;;;;;;;12.29;60.65;98802.00;5019296;28;19917;-80
2023/03/03 11:59:05;;;;;;;;;;;;;;;12.22;60.62;98798.22;5018525;28;19917;-80
2023/03/03 12:01:35;;;;;;;;;;;;;;;12.17;61.04;98791.72;5018045;28;19926;-79
2023/03/03 12:04:01;;;;;;;;;;;;;;;12.13;61.11;98793.75;5002153;28;19917;-81
2023/03/03 12:06:26;;;;;;;;;;;;;;;12.09;61.26;98793.16;5035940;28;20391;-80
2023/03/03 12:08:51;;;;;;;;;;;;;;;12.06;61.20;98788.16;5036041;28;19917;-79
2023/03/03 12:11:24;;;;;;;;;;;;;;;12.05;61.37;98791.75;5018203;28;19917;-80
2023/03/03 12:13:55;;;;;;;;;;;;;;;12.05;61.28;98796.16;5002145;28;20388;-79
2023/03/03 12:16:34;;;;;;;;;;;;;;;12.03;61.54;98791.03;5001807;28;19918;-79
2023/03/03 12:19:18;;;;;;;;;;;;;;;12.02;61.63;98791.16;5001712;28;20301;-80
2023/03/03 12:21:43;;;;;;;;;;;;;;;11.99;61.57;98787.03;5036042;28;20003;-81
2023/03/03 12:24:21;;;;;;;;;;;;;;;11.96;61.23;98789.91;5036358;28;19975;-80
2023/03/03 12:26:46;;;;;;;;;;;;;;;11.94;61.50;98790.03;5035694;28;19924;-79
2023/03/03 12:29:14;;;;;;;;;;;;;;;11.94;61.31;98783.97;5036490;28;20008;-80
2023/03/03 12:31:43;;;;;;;;;;;;;;;11.91;61.65;98779.78;5018238;28;19920;-80
2023/03/03 12:34:20;;;;;;;;;;;;;;;11.91;61.51;98787.63;5035806;28;19918;-79
2023/03/03 12:37:04;;;;;;;;;;;;;;;11.92;61.41;98788.47;5018004;28;19917;-80
2023/03/03 12:39:44;;;;;;;;;;;;;;;11.92;61.54;98785.84;5002655;28;19932;-80
2023/03/03 12:42:22;;;;;;;;;;;;;;;11.91;61.40;98789.41;5017876;28;19927;-81
2023/03/03 12:45:06;;;;;;;;;;;;;;;11.90;61.35;98782.50;5017552;28;19921;-79
2023/03/03 12:47:33;;;;;;;;;;;;;;;11.89;61.67;98791.31;5017672;28;20354;-80
2023/03/03 12:50:08;;;;;;;;;;;;;;;11.87;61.80;98786.19;5017363;28;19918;-80
2023/03/03 12:52:37;;;;;;;;;;;;;;;11.86;61.55;98784.56;5017781;28;19924;-80
2023/03/03 12:55:04;;;;;;;;;;;;;;;11.86;61.63;98781.94;5017461;28;19923;-80
2023/03/03 12:58:02;;;;;;;;;;;;;;;11.87;61.83;98785.38;5001032;28;19928;-79
2023/03/03 13:01:04;;;;;;;;;;;;;;;11.86;61.46;98778.47;4955248;29;20079;-82